Time;durP1;ratioP1;P1;durP2;ratioP2;P2;SDS_P1;SDS_P2;PMS_P1;PMS_P2;Temp;Humidity;BMP_temperature;BMP_pressure;BME280_temperature;BME280_humidity;BME280_pressure;Samples;Min_cycle;Max_cycle;Signal;HPM_P1;HPM_P2
2023/12/19 00:00:27;;;;;;;;;;;;;;;;;;;;;
2023/12/19 00:02:51;;;;;;;14.07;9.73;;;;;;;;;;5058081;28;20081;-79
2023/12/19 00:05:20;;;;;;;13.67;8.67;;;;;;;;;;5057724;28;20036;-80
2023/12/19 00:07:48;;;;;;;14.83;8.63;;;;;;;;;;5056714;28;20045;-80
2023/12/19 00:10:17;;;;;;;15.03;8.27;;;;;;;;;;5055021;28;20029;-81
2023/12/19 00:12:51;;;;;;;14.57;8.93;;;;;;;;;;5052088;28;20037;-83
2023/12/19 00:15:22;;;;;;;16.47;8.00;;;;;;;;;;5052890;28;20037;-84
2023/12/19 00:17:50;;;;;;;14.80;8.83;;;;;;;;;;5054050;28;20217;-80
2023/12/19 00:20:22;;;;;;;13.70;8.37;;;;;;;;;;5047855;28;20021;-80
2023/12/19 00:22:48;;;;;;;14.63;8.15;;;;;;;;;;5046620;28;20108;-82
2023/12/19 00:25:17;;;;;;;11.67;7.63;;;;;;;;;;5050027;28;20048;-80
2023/12/19 00:27:43;;;;;;;11.30;7.37;;;;;;;;;;5052599;28;20026;-79
2023/12/19 00:30:17;;;;;;;13.43;8.30;;;;;;;;;;5053874;28;20061;-80
2023/12/19 00:32:45;;;;;;;11.80;7.90;;;;;;;;;;5044889;28;20051;-79
2023/12/19 00:35:13;;;;;;;13.23;7.80;;;;;;;;;;5043527;28;20017;-80
2023/12/19 00:37:44;;;;;;;12.47;7.93;;;;;;;;;;5054777;28;20034;-79
2023/12/19 00:40:16;;;;;;;13.33;7.80;;;;;;;;;;5051464;28;20041;-80
2023/12/19 00:42:45;;;;;;;14.50;8.10;;;;;;;;;;5053879;28;20055;-82
2023/12/19 00:45:11;;;;;;;12.23;8.03;;;;;;;;;;5050829;28;20089;-79
2023/12/19 00:47:38;;;;;;;11.10;7.37;;;;;;;;;;5051847;28;20026;-81
2023/12/19 00:50:13;;;;;;;12.03;8.03;;;;;;;;;;5061438;28;20026;-77
2023/12/19 00:52:41;;;;;;;13.83;7.83;;;;;;;;;;5062829;28;20028;-80
2023/12/19 00:55:08;;;;;;;9.80;7.00;;;;;;;;;;5057429;28;20037;-80
2023/12/19 00:57:34;;;;;;;12.53;7.67;;;;;;;;;;5062787;28;20919;-79
2023/12/19 01:00:02;;;;;;;12.57;7.50;;;;;;;;;;5058149;28;20113;-81
2023/12/19 01:02:29;;;;;;;15.20;9.03;;;;;;;;;;5069536;28;20029;-80
2023/12/19 01:05:03;;;;;;;13.97;8.17;;;;;;;;;;5057907;28;20026;-79
2023/12/19 01:07:34;;;;;;;14.30;8.50;;;;;;;;;;5056635;28;20036;-81
2023/12/19 01:10:00;;;;;;;12.57;8.13;;;;;;;;;;5057462;28;20033;-79
2023/12/19 01:12:26;;;;;;;14.43;8.93;;;;;;;;;;5057584;28;20037;-80
2023/12/19 01:14:57;;;;;;;10.50;7.60;;;;;;;;;;5060157;28;20029;-79
2023/12/19 01:17:24;;;;;;;15.23;9.30;;;;;;;;;;5059163;28;20018;-80
2023/12/19 01:19:57;;;;;;;15.17;9.17;;;;;;;;;;5060787;28;20033;-79
2023/12/19 01:22:23;;;;;;;12.13;7.70;;;;;;;;;;5057994;28;20021;-80
2023/12/19 01:24:51;;;;;;;20.97;8.73;;;;;;;;;;5059504;28;20056;-77
2023/12/19 01:27:25;;;;;;;14.17;8.90;;;;;;;;;;5059246;28;20033;-79
2023/12/19 01:29:53;;;;;;;13.43;9.00;;;;;;;;;;5059753;28;20017;-78
2023/12/19 01:32:22;;;;;;;13.77;8.40;;;;;;;;;;5049911;28;20579;-81
2023/12/19 01:34:48;;;;;;;14.10;9.27;;;;;;;;;;5059773;28;20088;-79
2023/12/19 01:37:14;;;;;;;12.13;8.43;;;;;;;;;;5056905;28;20068;-81
2023/12/19 01:39:40;;;;;;;17.47;9.17;;;;;;;;;;5059160;28;20036;-82
2023/12/19 01:42:06;;;;;;;12.80;8.80;;;;;;;;;;5057527;28;20067;-78
2023/12/19 01:44:52;;;;;;;13.77;8.77;;;;;;;;;;5058933;28;20029;-81
2023/12/19 01:47:21;;;;;;;11.57;7.73;;;;;;;;;;5061416;28;20021;-79
2023/12/19 01:49:49;;;;;;;15.90;8.80;;;;;;;;;;5061086;28;20009;-80
2023/12/19 01:52:15;;;;;;;12.70;8.27;;;;;;;;;;5058152;28;20034;-80
2023/12/19 01:54:43;;;;;;;11.20;7.53;;;;;;;;;;5058255;28;20169;-80
2023/12/19 01:57:11;;;;;;;13.67;8.40;;;;;;;;;;5058075;28;20320;-80
2023/12/19 01:59:39;;;;;;;14.70;8.27;;;;;;;;;;5060625;28;20130;-81
2023/12/19 02:02:05;;;;;;;12.43;8.23;;;;;;;;;;5059868;28;20017;-80
2023/12/19 02:04:31;;;;;;;15.13;9.57;;;;;;;;;;5061470;28;20018;-83
2023/12/19 02:06:57;;;;;;;14.87;9.60;;;;;;;;;;5057818;28;20032;-81
2023/12/19 02:09:27;;;;;;;13.37;8.73;;;;;;;;;;5055478;28;20033;-80
2023/12/19 02:11:53;;;;;;;14.77;8.37;;;;;;;;;;5057401;28;20083;-80
2023/12/19 02:14:24;;;;;;;14.53;8.93;;;;;;;;;;5061312;28;20030;-79
2023/12/19 02:16:53;;;;;;;14.37;8.67;;;;;;;;;;5065458;28;20021;-80
2023/12/19 02:19:24;;;;;;;16.03;9.17;;;;;;;;;;5057297;28;20013;-79
2023/12/19 02:21:50;;;;;;;14.43;9.30;;;;;;;;;;5059571;28;20021;-80
2023/12/19 02:24:19;;;;;;;17.47;9.13;;;;;;;;;;5058820;28;20021;-79
2023/12/19 02:26:48;;;;;;;15.17;9.43;;;;;;;;;;5057950;28;20010;-79
2023/12/19 02:29:14;;;;;;;16.07;9.73;;;;;;;;;;5054416;28;20017;-79
2023/12/19 02:31:43;;;;;;;15.83;9.53;;;;;;;;;;5059074;28;20037;-80
2023/12/19 02:34:09;;;;;;;17.80;9.43;;;;;;;;;;5060630;28;20304;-80
2023/12/19 02:36:43;;;;;;;16.33;9.30;;;;;;;;;;5057815;28;20034;-83
2023/12/19 02:39:12;;;;;;;16.03;10.10;;;;;;;;;;5057863;28;20024;-81
2023/12/19 02:41:40;;;;;;;15.20;8.57;;;;;;;;;;5056569;28;20032;-78
2023/12/19 02:44:06;;;;;;;15.73;9.20;;;;;;;;;;5049315;28;20037;-78
2023/12/19 02:46:53;;;;;;;16.73;8.67;;;;;;;;;;5049699;28;20034;-78
2023/12/19 02:49:22;;;;;;;16.33;9.37;;;;;;;;;;5050853;28;20025;-82
2023/12/19 02:51:50;;;;;;;16.07;9.27;;;;;;;;;;5049213;28;20057;-79
2023/12/19 02:54:19;;;;;;;15.10;9.17;;;;;;;;;;5050600;28;20021;-79
2023/12/19 02:56:47;;;;;;;14.13;8.80;;;;;;;;;;5047949;28;20032;-80
2023/12/19 02:59:13;;;;;;;14.53;8.80;;;;;;;;;;5049931;28;20025;-79
2023/12/19 03:01:39;;;;;;;16.50;9.00;;;;;;;;;;5048873;28;20034;-82
2023/12/19 03:04:08;;;;;;;13.67;8.30;;;;;;;;;;5049346;28;20326;-81
2023/12/19 03:06:39;;;;;;;13.67;8.47;;;;;;;;;;5044121;28;20099;-80
2023/12/19 03:09:05;;;;;;;14.77;9.03;;;;;;;;;;5051213;28;20052;-80
2023/12/19 03:11:38;;;;;;;14.63;9.53;;;;;;;;;;5049598;28;20037;-81
2023/12/19 03:14:06;;;;;;;13.90;8.23;;;;;;;;;;5049969;28;20021;-81
2023/12/19 03:16:35;;;;;;;13.90;8.87;;;;;;;;;;5048506;28;20022;-79
2023/12/19 03:19:01;;;;;;;14.40;8.73;;;;;;;;;;5049473;28;20026;-79
2023/12/19 03:21:27;;;;;;;16.57;9.03;;;;;;;;;;5049515;28;20087;-79
2023/12/19 03:23:53;;;;;;;12.67;8.47;;;;;;;;;;5046092;28;20061;-79
2023/12/19 03:26:19;;;;;;;12.47;7.27;;;;;;;;;;5051456;28;20017;-82
2023/12/19 03:28:45;;;;;;;11.47;7.20;;;;;;;;;;5050627;28;20025;-82
2023/12/19 03:31:12;;;;;;;13.23;8.03;;;;;;;;;;5048495;28;20068;-81
2023/12/19 03:33:38;;;;;;;11.50;7.27;;;;;;;;;;5049860;28;20762;-80
2023/12/19 03:36:07;;;;;;;13.70;8.50;;;;;;;;;;5047680;28;20024;-81
2023/12/19 03:38:34;;;;;;;15.43;7.80;;;;;;;;;;5047899;28;20052;-80
2023/12/19 03:41:10;;;;;;;13.20;7.60;;;;;;;;;;5047571;28;20021;-80
2023/12/19 03:43:38;;;;;;;11.07;7.50;;;;;;;;;;5048687;28;20044;-79
2023/12/19 03:46:07;;;;;;;14.27;7.93;;;;;;;;;;5040521;28;20044;-80
2023/12/19 03:48:37;;;;;;;14.67;7.67;;;;;;;;;;5050611;28;20044;-81
2023/12/19 03:51:07;;;;;;;13.47;7.70;;;;;;;;;;5049809;28;20028;-81
2023/12/19 03:53:35;;;;;;;11.17;6.63;;;;;;;;;;5050299;28;20044;-79
2023/12/19 03:56:07;;;;;;;10.70;6.80;;;;;;;;;;5047504;28;20018;-81
2023/12/19 03:58:33;;;;;;;10.63;6.53;;;;;;;;;;5049581;28;20025;-80
2023/12/19 04:01:04;;;;;;;9.70;6.13;;;;;;;;;;5052827;28;20068;-81
2023/12/19 04:03:32;;;;;;;8.40;5.50;;;;;;;;;;5049946;28;20049;-80
2023/12/19 04:06:08;;;;;;;7.80;5.40;;;;;;;;;;5051507;28;20029;-80
2023/12/19 04:08:34;;;;;;;8.77;4.90;;;;;;;;;;5050128;28;20041;-81
2023/12/19 04:11:03;;;;;;;6.97;4.83;;;;;;;;;;5054457;28;20041;-80
2023/12/19 04:16:31;;;;;;;7.07;4.50;;;;;;;;;;5057145;28;20021;-79
2023/12/19 04:18:58;;;;;;;5.03;3.83;;;;;;;;;;5050423;28;20009;-80
2023/12/19 04:21:24;;;;;;;6.90;4.40;;;;;;;;;;5050958;28;20014;-80
2023/12/19 04:23:50;;;;;;;6.53;4.07;;;;;;;;;;5054025;28;20033;-78
2023/12/19 04:26:23;;;;;;;4.57;3.37;;;;;;;;;;5052282;28;20033;-79
2023/12/19 04:28:52;;;;;;;5.53;4.10;;;;;;;;;;5053176;28;20064;-80
2023/12/19 04:31:18;;;;;;;5.50;3.50;;;;;;;;;;5052338;28;20101;-80
2023/12/19 04:33:44;;;;;;;5.57;3.67;;;;;;;;;;5051345;28;20020;-79
2023/12/19 04:36:10;;;;;;;4.40;3.33;;;;;;;;;;5053734;28;20033;-80
2023/12/19 04:38:36;;;;;;;4.20;3.00;;;;;;;;;;5053649;28;20037;-82
2023/12/19 04:41:12;;;;;;;4.50;3.50;;;;;;;;;;5052938;28;20029;-80
2023/12/19 04:43:38;;;;;;;4.17;3.10;;;;;;;;;;5054821;28;20025;-82
2023/12/19 04:46:10;;;;;;;4.67;3.00;;;;;;;;;;5058591;28;20033;-83
2023/12/19 04:48:43;;;;;;;4.65;2.85;;;;;;;;;;5058803;28;20012;-82
2023/12/19 04:51:11;;;;;;;;;;;;;;;;;;5057513;28;20018;-82
2023/12/19 04:53:41;;;;;;;4.67;2.90;;;;;;;;;;5055267;28;19912;-83
2023/12/19 04:56:11;;;;;;;5.10;3.80;;;;;;;;;;5053454;28;20025;-84
2023/12/19 04:58:39;;;;;;;5.97;3.80;;;;;;;;;;5058985;28;20010;-85
2023/12/19 05:01:05;;;;;;;7.77;3.63;;;;;;;;;;5058917;28;20056;-84
2023/12/19 05:03:41;;;;;;;6.13;4.17;;;;;;;;;;5055378;28;20013;-81
2023/12/19 05:06:08;;;;;;;8.83;4.70;;;;;;;;;;5049676;28;20029;-81
2023/12/19 05:08:34;;;;;;;6.50;4.50;;;;;;;;;;5058699;28;20014;-82
2023/12/19 05:11:02;;;;;;;7.83;4.30;;;;;;;;;;5064183;28;20115;-84
2023/12/19 05:13:36;;;;;;;7.93;4.20;;;;;;;;;;5058925;28;20017;-82
2023/12/19 05:16:15;;;;;;;7.97;4.53;;;;;;;;;;5058579;28;20081;-81
2023/12/19 05:18:48;;;;;;;6.27;4.40;;;;;;;;;;5047739;28;20020;-84
2023/12/19 05:21:14;;;;;;;10.20;4.67;;;;;;;;;;5050422;28;20009;-83
2023/12/19 05:23:48;;;;;;;7.97;4.80;;;;;;;;;;5056109;28;20033;-83
2023/12/19 05:26:14;;;;;;;7.87;4.63;;;;;;;;;;5056916;28;20105;-83
2023/12/19 05:28:41;;;;;;;7.87;4.90;;;;;;;;;;5057489;28;20037;-82
2023/12/19 05:31:14;;;;;;;9.90;5.80;;;;;;;;;;5057313;28;20032;-84
2023/12/19 05:33:43;;;;;;;9.40;5.43;;;;;;;;;;5059028;28;20052;-83
2023/12/19 05:36:15;;;;;;;10.27;5.90;;;;;;;;;;5055227;28;20093;-83
2023/12/19 05:38:41;;;;;;;10.43;5.10;;;;;;;;;;5057303;28;20017;-83
2023/12/19 05:41:17;;;;;;;11.63;6.47;;;;;;;;;;5056507;28;20044;-83
2023/12/19 05:43:43;;;;;;;10.53;6.00;;;;;;;;;;5051247;28;20017;-82
2023/12/19 05:46:10;;;;;;;10.37;5.90;;;;;;;;;;5056395;28;20029;-83
2023/12/19 05:48:36;;;;;;;8.70;5.90;;;;;;;;;;5056374;28;20013;-81
2023/12/19 05:51:03;;;;;;;9.43;6.20;;;;;;;;;;5052800;28;20022;-83
2023/12/19 05:53:31;;;;;;;10.37;6.27;;;;;;;;;;5055020;28;20034;-83
2023/12/19 05:55:58;;;;;;;10.83;6.00;;;;;;;;;;5056814;28;20033;-84
2023/12/19 05:58:26;;;;;;;11.63;7.03;;;;;;;;;;5056089;28;20021;-83
2023/12/19 06:00:55;;;;;;;9.70;6.20;;;;;;;;;;5055181;28;20033;-83
2023/12/19 06:03:21;;;;;;;8.90;5.53;;;;;;;;;;5051861;28;20026;-81
2023/12/19 06:05:47;;;;;;;9.63;5.40;;;;;;;;;;5056213;28;20021;-82
2023/12/19 06:08:17;;;;;;;8.23;4.80;;;;;;;;;;5055957;28;20014;-83
2023/12/19 06:10:43;;;;;;;9.10;6.00;;;;;;;;;;5055291;28;20030;-82
2023/12/19 06:13:09;;;;;;;10.20;6.00;;;;;;;;;;5054787;28;20029;-80
2023/12/19 06:15:37;;;;;;;10.73;5.90;;;;;;;;;;5055205;28;20044;-78
2023/12/19 06:18:04;;;;;;;7.93;5.27;;;;;;;;;;5053396;28;20029;-79
2023/12/19 06:20:32;;;;;;;7.07;4.93;;;;;;;;;;5040682;28;20045;-79
2023/12/19 06:22:58;;;;;;;9.47;5.70;;;;;;;;;;5047450;28;20017;-80
2023/12/19 06:25:24;;;;;;;8.17;5.30;;;;;;;;;;5049447;28;20033;-80
2023/12/19 06:27:52;;;;;;;11.03;5.37;;;;;;;;;;5049225;28;21579;-80
2023/12/19 06:30:20;;;;;;;6.77;4.57;;;;;;;;;;5047431;28;20056;-79
2023/12/19 06:32:48;;;;;;;9.53;5.17;;;;;;;;;;5048929;28;20034;-79
2023/12/19 06:35:14;;;;;;;8.93;4.87;;;;;;;;;;5049638;28;20022;-78
2023/12/19 06:37:48;;;;;;;9.50;5.07;;;;;;;;;;5049160;28;20085;-79
2023/12/19 06:40:16;;;;;;;9.83;5.33;;;;;;;;;;5046708;28;20026;-78
2023/12/19 06:42:42;;;;;;;11.13;5.27;;;;;;;;;;5049207;28;20073;-82
2023/12/19 06:45:12;;;;;;;9.27;5.97;;;;;;;;;;5052777;28;20028;-77
2023/12/19 06:47:40;;;;;;;11.67;6.60;;;;;;;;;;5057465;28;20040;-79
2023/12/19 06:50:07;;;;;;;8.83;5.77;;;;;;;;;;5053636;28;20076;-79
2023/12/19 06:52:33;;;;;;;8.67;6.00;;;;;;;;;;5055629;28;20067;-79
2023/12/19 06:55:00;;;;;;;9.70;6.07;;;;;;;;;;5044591;28;20009;-80
2023/12/19 06:57:26;;;;;;;12.27;7.37;;;;;;;;;;5064654;28;20033;-80
2023/12/19 06:59:52;;;;;;;12.10;6.83;;;;;;;;;;5055469;28;20040;-81
2023/12/19 07:02:21;;;;;;;8.77;5.27;;;;;;;;;;5053985;28;20072;-81
2023/12/19 07:04:57;;;;;;;;;;;;;;;;;;;;;
2023/12/19 07:07:27;;;;;;;11.53;6.47;;;;;;;;;;5054694;28;20052;-80
2023/12/19 07:10:01;;;;;;;9.13;5.60;;;;;;;;;;5048643;28;20014;-81
2023/12/19 07:12:29;;;;;;;11.37;6.00;;;;;;;;;;5058611;28;20029;-81
2023/12/19 07:14:55;;;;;;;12.97;7.37;;;;;;;;;;5069854;28;20083;-79
2023/12/19 07:17:24;;;;;;;10.73;6.30;;;;;;;;;;5060646;28;20077;-79
2023/12/19 07:19:58;;;;;;;11.13;6.67;;;;;;;;;;5058482;28;20037;-80
2023/12/19 07:22:34;;;;;;;13.70;7.27;;;;;;;;;;5058967;28;20013;-80
2023/12/19 07:25:06;;;;;;;11.00;6.30;;;;;;;;;;5056171;28;20039;-80
2023/12/19 07:27:35;;;;;;;11.65;6.95;;;;;;;;;;5057972;28;20018;-79
2023/12/19 07:30:01;;;;;;;9.57;6.13;;;;;;;;;;5057966;28;20020;-79
2023/12/19 07:32:30;;;;;;;9.83;6.23;;;;;;;;;;5058981;28;20096;-81
2023/12/19 07:35:00;;;;;;;10.80;5.70;;;;;;;;;;5050378;28;20026;-80
2023/12/19 07:37:29;;;;;;;10.97;5.87;;;;;;;;;;5059288;28;20022;-81
2023/12/19 07:40:01;;;;;;;12.00;7.13;;;;;;;;;;5059274;28;20013;-81
2023/12/19 07:42:29;;;;;;;11.80;6.32;;;;;;;;;;5057935;28;20028;-80
2023/12/19 07:44:55;;;;;;;10.77;6.27;;;;;;;;;;5054307;28;20116;-80
2023/12/19 07:47:22;;;;;;;11.13;6.03;;;;;;;;;;5057830;28;20037;-80
2023/12/19 07:49:50;;;;;;;10.10;5.70;;;;;;;;;;5057212;28;20025;-79
2023/12/19 07:52:26;;;;;;;11.70;7.07;;;;;;;;;;5056394;28;20068;-81
2023/12/19 07:55:11;;;;;;;;;;;;;;;;;;;;;
2023/12/19 07:57:38;;;;;;;10.07;6.37;;;;;;;;;;5056452;28;20068;-80
2023/12/19 08:00:08;;;;;;;12.80;6.33;;;;;;;;;;5053532;28;20033;-80
2023/12/19 08:02:42;;;;;;;10.27;5.00;;;;;;;;;;5057041;28;20043;-79
2023/12/19 08:05:12;;;;;;;12.20;5.20;;;;;;;;;;5054093;28;20033;-81
2023/12/19 08:07:38;;;;;;;7.67;4.97;;;;;;;;;;5056162;28;20025;-80
2023/12/19 08:10:04;;;;;;;7.20;4.53;;;;;;;;;;5054139;28;20385;-82
2023/12/19 08:12:32;;;;;;;9.33;5.57;;;;;;;;;;5051897;28;20456;-82
2023/12/19 08:15:01;;;;;;;9.00;5.27;;;;;;;;;;5052994;28;20025;-80
2023/12/19 08:17:32;;;;;;;12.00;5.60;;;;;;;;;;5057022;28;20044;-79
2023/12/19 08:22:31;;;;;;;7.93;4.20;;;;;;;;;;5037460;28;20056;-79
2023/12/19 08:25:05;;;;;;;7.80;4.23;;;;;;;;;;5039172;28;20064;-77
2023/12/19 08:28:19;;;;;;;;;;;;;;;;;;;;;
2023/12/19 08:31:24;;;;;;;7.97;4.83;;;;;;;;;;5038838;28;20029;-79
2023/12/19 08:33:55;;;;;;;10.30;4.87;;;;;;;;;;5056713;28;20018;-79
2023/12/19 08:36:23;;;;;;;7.33;4.43;;;;;;;;;;5032898;28;20073;-80
2023/12/19 08:38:51;;;;;;;7.80;4.50;;;;;;;;;;5051367;28;20014;-79
2023/12/19 08:41:22;;;;;;;7.30;4.47;;;;;;;;;;5037376;28;20214;-80
2023/12/19 08:43:55;;;;;;;11.33;5.03;;;;;;;;;;5031230;28;20029;-80
2023/12/19 08:46:24;;;;;;;7.97;4.70;;;;;;;;;;5035546;28;20030;-79
2023/12/19 08:52:00;;;;;;;;;;;;;;;;;;;;;
2023/12/19 08:54:34;;;;;;;10.17;5.17;;;;;;;;;;5034891;28;20061;-80
2023/12/19 08:57:20;;;;;;;5.43;3.60;;;;;;;;;;5035625;28;20030;-81
2023/12/19 08:59:51;;;;;;;6.80;4.20;;;;;;;;;;5035934;28;20033;-79
2023/12/19 09:02:17;;;;;;;7.27;3.93;;;;;;;;;;5034067;28;20046;-78
2023/12/19 09:07:58;;;;;;;6.33;3.50;;;;;;;;;;5035896;28;20025;-79
2023/12/19 09:11:01;;;;;;;12.33;3.93;;;;;;;;;;5045945;28;20034;-78
2023/12/19 09:16:33;;;;;;;6.50;3.70;;;;;;;;;;5203299;23;20061;-79
2023/12/19 09:19:16;;;;;;;;;;;;;;;;;;;;;
2023/12/19 09:21:45;;;;;;;6.63;2.70;;;;;;;;;;5074750;28;20017;-79
2023/12/19 09:24:32;;;;;;;6.50;2.80;;;;;;;;;;5091188;28;20013;-78
2023/12/19 09:27:16;;;;;;;5.50;3.10;;;;;;;;;;5075539;28;20013;-79
2023/12/19 09:40:37;;;;;;;4.40;2.37;;;;;;;;;;5095519;22;20072;-80
2023/12/19 09:43:22;;;;;;;8.00;3.07;;;;;;;;;;5054645;28;20073;-79
2023/12/19 09:46:10;;;;;;;7.83;2.80;;;;;;;;;;5054464;28;20025;-79
2023/12/19 09:48:58;;;;;;;;;;;;;;;;;;;;;
2023/12/19 09:52:02;;;;;;;10.63;2.80;;;;;;;;;;5054247;28;20057;-79
2023/12/19 09:57:23;;;;;;;5.77;3.33;;;;;;;;;;5041981;28;20041;-79
2023/12/19 10:00:06;;;;;;;9.50;3.20;;;;;;;;;;5052779;28;20049;-79
2023/12/19 10:02:36;;;;;;;3.67;2.30;;;;;;;;;;5054301;28;20026;-80
2023/12/19 10:05:07;;;;;;;3.67;2.20;;;;;;;;;;5065120;28;20033;-79
2023/12/19 10:07:34;;;;;;;7.97;2.97;;;;;;;;;;5048604;28;20021;-79
2023/12/19 10:10:28;;;;;;;6.30;2.37;;;;;;;;;;5053540;28;20036;-80
2023/12/19 10:12:51;;;;;;;4.83;2.10;;;;;;;;;;5052750;28;20067;-79
2023/12/19 10:15:25;;;;;;;5.73;2.53;;;;;;;;;;5052505;28;20037;-80
2023/12/19 10:18:36;;;;;;;6.47;2.80;;;;;;;;;;5070023;28;20036;-80
2023/12/19 10:24:26;;;;;;;8.20;2.70;;;;;;;;;;4991758;28;20031;-79
2023/12/19 10:27:20;;;;;;;10.73;3.50;;;;;;;;;;5020619;28;20069;-79
2023/12/19 10:32:42;;;;;;;4.43;2.73;;;;;;;;;;5022451;28;20034;-79
2023/12/19 10:35:26;;;;;;;10.03;3.63;;;;;;;;;;5021062;28;20031;-79
2023/12/19 10:38:16;;;;;;;14.80;2.97;;;;;;;;;;5021638;28;20042;-79
2023/12/19 10:40:58;;;;;;;7.07;2.40;;;;;;;;;;5021460;28;20122;-79
2023/12/19 10:43:58;;;;;;;3.92;2.05;;;;;;;;;;5024294;28;20081;-80
2023/12/19 10:46:38;;;;;;;6.70;2.37;;;;;;;;;;5420186;23;20104;-79
2023/12/19 10:49:21;;;;;;;4.53;2.07;;;;;;;;;;5074797;28;20039;-80
2023/12/19 10:51:50;;;;;;;5.43;1.80;;;;;;;;;;5087251;28;20052;-79
2023/12/19 10:54:16;;;;;;;8.00;2.40;;;;;;;;;;5069665;28;20024;-79
2023/12/19 10:57:05;;;;;;;5.50;1.60;;;;;;;;;;5076809;28;20014;-81
2023/12/19 10:59:49;;;;;;;9.03;2.30;;;;;;;;;;5074364;28;20036;-79
2023/12/19 11:02:53;;;;;;;6.07;2.20;;;;;;;;;;5072445;28;20017;-80
2023/12/19 11:05:42;;;;;;;7.33;2.33;;;;;;;;;;5080884;28;20016;-80
2023/12/19 11:08:22;;;;;;;9.20;2.67;;;;;;;;;;5074241;28;20060;-79
2023/12/19 11:10:57;;;;;;;10.73;2.27;;;;;;;;;;5073750;28;20039;-80
2023/12/19 11:18:51;;;;;;;7.30;2.47;;;;;;;;;;5049431;28;20056;-80
2023/12/19 11:21:23;;;;;;;10.07;2.10;;;;;;;;;;5059486;28;20013;-80
2023/12/19 11:24:07;;;;;;;4.45;1.38;;;;;;;;;;5057952;28;20008;-80
2023/12/19 11:26:53;;;;;;;7.17;2.23;;;;;;;;;;5071002;28;20010;-80
2023/12/19 11:29:45;;;;;;;7.83;1.87;;;;;;;;;;5058232;28;20017;-79
2023/12/19 11:32:30;;;;;;;7.90;2.00;;;;;;;;;;5052826;28;20040;-79
2023/12/19 11:35:11;;;;;;;3.43;1.83;;;;;;;;;;5053378;28;20034;-79
2023/12/19 11:37:48;;;;;;;8.20;1.70;;;;;;;;;;5055873;28;20013;-79
2023/12/19 11:40:47;;;;;;;;;;;;;;;;;;;;;
2023/12/19 11:46:06;;;;;;;10.07;2.00;;;;;;;;;;5057239;28;20068;-81
2023/12/19 11:52:07;;;;;;;9.43;2.57;;;;;;;;;;4973609;28;20070;-77
2023/12/19 11:54:44;;;;;;;9.93;3.50;;;;;;;;;;5074022;28;20014;-79
2023/12/19 11:57:27;;;;;;;13.30;2.40;;;;;;;;;;5055929;28;20048;-77
2023/12/19 12:00:26;;;;;;;21.23;8.40;;;;;;;;;;5054089;28;20041;-78
2023/12/19 12:03:08;;;;;;;9.10;2.13;;;;;;;;;;5056746;28;20010;-78
2023/12/19 12:06:27;;;;;;;;;;;;;;;;;;;;;
2023/12/19 12:09:35;;;;;;;12.10;3.03;;;;;;;;;;4969459;28;20054;-78
2023/12/19 12:15:21;;;;;;;;;;;;;;;;;;;;;
2023/12/19 12:18:06;;;;;;;8.83;2.57;;;;;;;;;;5055748;28;20030;-79
2023/12/19 12:23:52;;;;;;;5.90;2.60;;;;;;;;;;5056650;28;20177;-78
2023/12/19 12:26:49;;;;;;;6.07;2.00;;;;;;;;;;5071799;28;20080;-78
2023/12/19 12:32:32;;;;;;;10.07;3.17;;;;;;;;;;5058561;28;20037;-78
2023/12/19 12:35:24;;;;;;;7.73;2.07;;;;;;;;;;5072768;28;20025;-78
2023/12/19 12:38:10;;;;;;;6.53;2.60;;;;;;;;;;5048942;28;20040;-78
2023/12/19 12:40:44;;;;;;;9.57;3.20;;;;;;;;;;5073802;28;20041;-80
2023/12/19 12:46:53;;;;;;;8.83;2.60;;;;;;;;;;5041539;28;20013;-80
2023/12/19 12:49:21;;;;;;;6.23;2.17;;;;;;;;;;5053284;28;20021;-79
2023/12/19 12:51:58;;;;;;;5.83;2.47;;;;;;;;;;5055351;28;20018;-79
2023/12/19 12:54:33;;;;;;;9.33;2.23;;;;;;;;;;5061041;28;20030;-79
2023/12/19 12:57:14;;;;;;;7.87;2.53;;;;;;;;;;5056638;28;20013;-79
2023/12/19 12:59:52;;;;;;;6.03;1.73;;;;;;;;;;5071985;28;20057;-80
2023/12/19 13:02:36;;;;;;;;;;;;;;;;;;;;;
2023/12/19 13:05:05;;;;;;;9.77;2.50;;;;;;;;;;5055145;28;20044;-80
2023/12/19 13:07:42;;;;;;;7.07;2.37;;;;;;;;;;5054877;28;20036;-79
2023/12/19 13:10:10;;;;;;;8.73;1.83;;;;;;;;;;5057420;28;20044;-80
2023/12/19 13:12:43;;;;;;;10.97;2.53;;;;;;;;;;5054384;28;20037;-80
2023/12/19 13:15:18;;;;;;;6.67;2.37;;;;;;;;;;5054753;28;20017;-79
2023/12/19 13:17:49;;;;;;;6.60;2.20;;;;;;;;;;5055851;28;20192;-79
2023/12/19 13:20:21;;;;;;;9.52;2.97;;;;;;;;;;5071062;28;20067;-79
2023/12/19 13:22:56;;;;;;;6.63;2.23;;;;;;;;;;5054738;28;20045;-79
2023/12/19 13:25:35;;;;;;;7.30;2.63;;;;;;;;;;5055506;28;20021;-79
2023/12/19 13:28:02;;;;;;;8.37;2.63;;;;;;;;;;5071447;28;20029;-79
2023/12/19 13:30:30;;;;;;;7.53;2.90;;;;;;;;;;5055216;28;20024;-79
2023/12/19 13:33:26;;;;;;;;;;;;;;;;;;;;;
2023/12/19 13:36:05;;;;;;;4.27;2.37;;;;;;;;;;5054780;28;20048;-80
2023/12/19 13:38:48;;;;;;;9.87;2.80;;;;;;;;;;5060034;28;20009;-79
2023/12/19 13:41:15;;;;;;;6.10;2.93;;;;;;;;;;5057769;28;20060;-80
2023/12/19 13:43:45;;;;;;;7.10;2.93;;;;;;;;;;5053753;28;20033;-79
2023/12/19 13:46:13;;;;;;;4.83;2.57;;;;;;;;;;5054035;28;20041;-80
2023/12/19 13:48:45;;;;;;;6.37;2.70;;;;;;;;;;5054082;28;20057;-82
2023/12/19 13:54:16;;;;;;;9.10;2.65;;;;;;;;;;5055300;28;20029;-78
2023/12/19 13:56:50;;;;;;;4.37;2.67;;;;;;;;;;5054289;28;20021;-79
2023/12/19 13:59:23;;;;;;;8.30;3.87;;;;;;;;;;5070732;28;20021;-81
2023/12/19 14:01:56;;;;;;;5.53;3.40;;;;;;;;;;5053962;28;20219;-79
2023/12/19 14:04:25;;;;;;;8.90;4.13;;;;;;;;;;5052739;28;20017;-80
2023/12/19 14:07:00;;;;;;;6.60;3.13;;;;;;;;;;5070454;28;20085;-79
2023/12/19 14:09:47;;;;;;;8.07;3.37;;;;;;;;;;5056758;28;20056;-80
2023/12/19 14:12:43;;;;;;;;;;;;;;;;;;;;;
2023/12/19 14:15:13;;;;;;;10.80;4.33;;;;;;;;;;5053044;28;20139;-80
2023/12/19 14:18:04;;;;;;;8.33;3.27;;;;;;;;;;5052961;28;20056;-79
2023/12/19 14:20:39;;;;;;;5.77;2.90;;;;;;;;;;5069790;28;20018;-80
2023/12/19 14:23:13;;;;;;;5.30;3.17;;;;;;;;;;5070133;28;20030;-77
2023/12/19 14:25:42;;;;;;;11.70;3.60;;;;;;;;;;5070572;28;20132;-78
2023/12/19 14:28:14;;;;;;;9.50;3.70;;;;;;;;;;5055810;28;20092;-79
2023/12/19 14:30:47;;;;;;;14.97;4.87;;;;;;;;;;5067614;28;20009;-79
2023/12/19 14:33:22;;;;;;;13.33;5.83;;;;;;;;;;5052351;28;20056;-78
2023/12/19 14:36:02;;;;;;;10.90;5.90;;;;;;;;;;5069716;28;20018;-79
2023/12/19 14:38:56;;;;;;;12.13;5.40;;;;;;;;;;5052647;28;20028;-77
2023/12/19 14:44:20;;;;;;;11.13;5.60;;;;;;;;;;5053687;28;20089;-76
2023/12/19 14:46:46;;;;;;;17.37;6.13;;;;;;;;;;5052318;28;20037;-76
2023/12/19 14:49:48;;;;;;;17.80;7.27;;;;;;;;;;5053726;28;20073;-76
2023/12/19 14:55:09;;;;;;;14.43;6.13;;;;;;;;;;5052935;28;20036;-78
2023/12/19 14:57:48;;;;;;;14.67;6.53;;;;;;;;;;5069253;28;20026;-78
2023/12/19 15:03:10;;;;;;;13.23;6.13;;;;;;;;;;5052787;28;20065;-79
2023/12/19 15:05:46;;;;;;;10.98;5.18;;;;;;;;;;5052968;28;20022;-78
2023/12/19 15:08:13;;;;;;;17.10;6.17;;;;;;;;;;5052540;28;20017;-77
2023/12/19 15:10:39;;;;;;;11.17;5.23;;;;;;;;;;5052356;28;20041;-78
2023/12/19 15:13:07;;;;;;;13.63;5.40;;;;;;;;;;5069130;28;20032;-78
2023/12/19 15:15:43;;;;;;;;;;;;;;;;;;;;;
2023/12/19 15:18:27;;;;;;;10.80;3.80;;;;;;;;;;5053654;28;20037;-78
2023/12/19 15:21:15;;;;;;;8.43;3.33;;;;;;;;;;5054526;28;20029;-79
2023/12/19 15:24:03;;;;;;;9.30;2.90;;;;;;;;;;5068520;28;20036;-79
2023/12/19 15:26:58;;;;;;;9.87;4.00;;;;;;;;;;5050989;28;20017;-78
2023/12/19 15:29:53;;;;;;;7.73;3.90;;;;;;;;;;5051584;28;20024;-78
2023/12/19 15:32:22;;;;;;;14.67;4.60;;;;;;;;;;5047079;28;20057;-79
2023/12/19 15:34:55;;;;;;;11.17;4.93;;;;;;;;;;5055307;28;20034;-78
2023/12/19 15:37:26;;;;;;;7.63;5.07;;;;;;;;;;5052284;28;20105;-78
2023/12/19 15:40:11;;;;;;;9.97;5.03;;;;;;;;;;5051837;28;20085;-78
2023/12/19 15:42:46;;;;;;;12.03;6.03;;;;;;;;;;5051247;28;20022;-77
2023/12/19 15:45:25;;;;;;;10.77;5.17;;;;;;;;;;5067506;28;20024;-78
2023/12/19 15:48:18;;;;;;;;;;;;;;;;;;;;;
2023/12/19 15:50:55;;;;;;;7.55;3.90;;;;;;;;;;5052134;28;20051;-78
2023/12/19 15:53:46;;;;;;;;;;;;;;;;;;;;;
2023/12/19 15:59:44;;;;;;;7.57;3.13;;;;;;;;;;5029015;28;20022;-77
2023/12/19 16:05:27;;;;;;;8.98;3.50;;;;;;;;;;5052274;28;20030;-77
2023/12/19 16:08:04;;;;;;;6.73;3.27;;;;;;;;;;5067841;28;20025;-78
2023/12/19 16:10:50;;;;;;;7.57;3.00;;;;;;;;;;5049651;28;20032;-78
2023/12/19 16:13:16;;;;;;;5.23;2.83;;;;;;;;;;5050704;28;20048;-78
2023/12/19 16:15:45;;;;;;;3.80;2.23;;;;;;;;;;5054915;28;20025;-77
2023/12/19 16:18:21;;;;;;;;;;;;;;;;;;;;;
2023/12/19 16:20:55;;;;;;;12.30;4.97;;;;;;;;;;5052422;28;20052;-78
2023/12/19 16:23:23;;;;;;;10.73;4.60;;;;;;;;;;5051061;28;20062;-78
2023/12/19 16:26:09;;;;;;;6.60;3.80;;;;;;;;;;5053278;28;20037;-78
2023/12/19 16:28:51;;;;;;;7.07;3.40;;;;;;;;;;5060944;28;20029;-77
2023/12/19 16:31:28;;;;;;;5.97;3.43;;;;;;;;;;5052097;28;20206;-78
2023/12/19 16:33:55;;;;;;;5.47;2.60;;;;;;;;;;5051176;28;20013;-78
2023/12/19 16:36:40;;;;;;;6.03;2.90;;;;;;;;;;5067022;28;20026;-78
2023/12/19 16:39:39;;;;;;;;;;;;;;;;;;;;;
2023/12/19 16:42:48;;;;;;;;;;;;;;;;;;;;;
2023/12/19 16:47:54;;;;;;;8.73;3.13;;;;;;;;;;5046165;28;20014;-78
2023/12/19 16:50:23;;;;;;;9.60;3.50;;;;;;;;;;5055724;28;20081;-78
2023/12/19 16:53:05;;;;;;;7.00;4.07;;;;;;;;;;5050805;28;20045;-79